Sardinia Vera — IBWV — position and weather

sailwx.info

Track history (hours):
 
Tides and Currents Weather Stations Pressure Air Temp Water Temp Dewpoint Dewpoint Depression Visibility Wind Speed Wind Dir Waves Ship Positions

Sardinia Vera

Last reported at 2015-Jul-06 08:33 UTC. Time now 2015-Jul-06 09:14 UTC.
Position N 43°14' E 010°07'.

; draft 5.3 m.

Type: Passenger vessel. MMSI: 247392000.

Date/timePositionNaut miles runAvg speedWind from/ knotsBaromVisibWave heightAir tempDewpointWater temp
2015-Jul-06 08:33N 43°14' E 010°07'1716.9
2015-Jul-06 07:33N 43°30' E 010°12'5 5.1
2015-Jul-06 06:34N 43°33' E 010°18'0 0.0
2015-Jul-06 05:33N 43°33' E 010°18'0 0.4
2015-Jul-06 04:33N 43°33' E 010°18'1313.4
2015-Jul-06 03:33N 43°20' E 010°13'1514.8
2015-Jul-06 02:33N 43°06' E 010°06'1716.5
2015-Jul-06 01:33N 42°50' E 009°60'1717.1
2015-Jul-06 00:32N 42°33' E 009°57'2117.0
2015-Jul-05 23:19N 42°12' E 009°53'4916.7
2015-Jul-05 20:25N 41°24' E 009°46'32 1.7
2015-Jul-05 01:24N 41°56' E 009°52'1616.7
2015-Jul-05 00:27N 42°11' E 009°55'4816.6
2015-Jul-04 21:34N 42°59' E 010°03'1717.0
2015-Jul-04 20:34N 43°16' E 010°07'1716.1
2015-Jul-04 19:31N 43°32' E 010°15'3 2.9
2015-Jul-04 18:32N 43°33' E 010°18'0 0.0
2015-Jul-04 17:33N 43°33' E 010°18'0 0.0
2015-Jul-04 16:33N 43°33' E 010°18'0 0.0
2015-Jul-04 15:33N 43°33' E 010°18'1212.3
2015-Jul-04 14:34N 43°24' E 010°06'1716.6
2015-Jul-04 13:33N 43°13' E 009°50'1616.4
2015-Jul-04 12:33N 42°59' E 009°38'1716.3
2015-Jul-04 11:32N 42°43' E 009°30'5 2.6
2015-Jul-04 09:33N 42°47' E 009°35'1817.5
2015-Jul-04 08:32N 42°57' E 009°55'1717.1
2015-Jul-04 07:33N 43°13' E 010°04'1717.1
2015-Jul-04 06:33N 43°29' E 010°12'6 6.4
2015-Jul-04 05:33N 43°33' E 010°18'0 0.0
2015-Jul-04 04:33N 43°33' E 010°18'8 7.7
2015-Jul-04 03:34N 43°27' E 010°12'1817.7
2015-Jul-04 02:34N 43°10' E 010°07'1717.2
2015-Jul-04 01:34N 42°53' E 010°01'1717.3
2015-Jul-04 00:33N 42°36' E 009°57'1717.4
2015-Jul-03 23:33N 42°19' E 009°54'6817.0
2015-Jul-03 19:33N 41°11' E 009°44'40 2.2
2015-Jul-03 01:31N 41°51' E 009°50'2016.8
2015-Jul-03 00:19N 42°11' E 009°52'1316.7
2015-Jul-02 23:33N 42°24' E 009°55'5016.6
2015-Jul-02 20:33N 43°13' E 010°07'1716.7
2015-Jul-02 19:34N 43°29' E 010°12'6 6.1
2015-Jul-02 18:33N 43°33' E 010°18'0 0.0
2015-Jul-02 17:33N 43°33' E 010°18'0 0.0
2015-Jul-02 16:33N 43°33' E 010°18'0 0.0
2015-Jul-02 15:33N 43°33' E 010°18'1010.0
2015-Jul-02 14:33N 43°26' E 010°08'1717.0
2015-Jul-02 13:33N 43°15' E 009°51'1816.9
2015-Jul-02 12:28N 42°59' E 009°37'1617.1
2015-Jul-02 11:33N 42°44' E 009°31'3 1.6
2015-Jul-02 09:33N 42°46' E 009°35'1716.9
2015-Jul-02 08:33N 42°56' E 009°53'1716.5
2015-Jul-02 07:33N 43°11' E 010°02'1717.1
2015-Jul-02 06:33N 43°27' E 010°10'8 7.9
2015-Jul-02 05:34N 43°33' E 010°18'0 0.0
2015-Jul-02 04:33N 43°33' E 010°18'8 8.1
2015-Jul-02 03:34N 43°26' E 010°12'1717.0
2015-Jul-02 02:34N 43°10' E 010°08'2116.6
2015-Jul-02 01:16N 42°49' E 009°60'1216.7
2015-Jul-02 00:34N 42°37' E 009°57'1716.9
2015-Jul-01 23:33N 42°20' E 009°55'7216.9
2015-Jul-01 19:15N 41°08' E 009°43'45 2.5
2015-Jul-01 01:31N 41°53' E 009°49'7316.3
2015-Jun-30 21:03N 43°05' E 010°04'816.9
2015-Jun-30 20:33N 43°13' E 010°06'1716.8
2015-Jun-30 19:33N 43°29' E 010°12'6 5.6
2015-Jun-30 18:33N 43°33' E 010°18'0 0.0
2015-Jun-30 17:17N 43°33' E 010°18'0 0.0
2015-Jun-30 16:33N 43°33' E 010°18'0 0.0
2015-Jun-30 15:32N 43°33' E 010°18'1111.7
2015-Jun-30 14:33N 43°25' E 010°07'1716.7
2015-Jun-30 13:33N 43°13' E 009°50'23 5.5
2015-Jun-30 09:16N 42°51' E 009°43'1217.6
2015-Jun-30 08:33N 42°58' E 009°56'1817.6
2015-Jun-30 07:33N 43°15' E 010°04'1717.3
2015-Jun-30 06:34N 43°31' E 010°13'4 4.0
2015-Jun-30 05:33N 43°33' E 010°18'0 0.0
2015-Jun-30 04:33N 43°33' E 010°18'6 6.1
2015-Jun-30 03:34N 43°28' E 010°13'1716.8
2015-Jun-30 02:34N 43°12' E 010°07'1717.0
2015-Jun-30 01:33N 42°55' E 010°02'2317.2
2015-Jun-30 00:14N 42°33' E 009°55'1217.2
2015-Jun-29 23:33N 42°22' E 009°52'6816.9
2015-Jun-29 19:30N 41°13' E 009°44'1616.2
2015-Jun-29 18:30N 40°58' E 009°38'5810.8
2015-Jun-29 13:09N 41°55' E 009°50'1117.5
2015-Jun-29 12:29N 42°06' E 009°52'5217.5
2015-Jun-29 09:33N 42°57' E 010°02'1716.9
2015-Jun-29 08:33N 43°14' E 010°07'1717.3
2015-Jun-29 07:33N 43°30' E 010°13'5 4.6
2015-Jun-29 06:33N 43°33' E 010°18'0 0.0
2015-Jun-29 05:32N 43°33' E 010°18'0 0.1
2015-Jun-29 04:33N 43°33' E 010°18'1312.7
2015-Jun-29 03:33N 43°22' E 010°11'1716.9
2015-Jun-29 02:33N 43°05' E 010°06'1716.8
2015-Jun-29 01:33N 42°49' E 009°60'4116.6
2015-Jun-28 23:04N 42°08' E 009°51'66 2.5
2015-Jun-27 20:34N 43°13' E 010°06'1716.7
2015-Jun-27 19:34N 43°29' E 010°12'6 6.3
2015-Jun-27 18:33N 43°33' E 010°18'0 0.0
2015-Jun-27 17:34N 43°33' E 010°18'0 0.0
2015-Jun-27 16:32N 43°33' E 010°18'2 2.0
2015-Jun-27 15:33N 43°32' E 010°16'1616.1
2015-Jun-27 14:33N 43°20' E 010°01'1717.4
2015-Jun-27 13:33N 43°08' E 009°44'1817.3
2015-Jun-27 12:29N 42°51' E 009°34'5 1.5
2015-Jun-27 09:33N 42°49' E 009°39'2217.0
2015-Jun-27 08:16N 43°05' E 009°59'1217.6
2015-Jun-27 07:33N 43°16' E 010°05'1515.0
2015-Jun-27 06:33N 43°30' E 010°13'5 2.5
2015-Jun-27 04:33N 43°33' E 010°18'9 9.0
2015-Jun-27 03:34N 43°26' E 010°12'1817.3
2015-Jun-27 02:33N 43°09' E 010°06'1717.1
2015-Jun-27 01:33N 42°52' E 009°60'1717.4
2015-Jun-27 00:33N 42°35' E 009°55'  
Track history (hours):
 
Tides and Currents Weather Stations Pressure Air Temp Water Temp Dewpoint Dewpoint Depression Visibility Wind Speed Wind Dir Waves Ship Positions

Sardinia Vera

Last reported at 2015-Jul-06 08:33 UTC. Time now 2015-Jul-06 09:14 UTC.
Position N 43°14' E 010°07'.

; draft 5.3 m.

Type: Passenger vessel. MMSI: 247392000.

Date/timePositionNaut miles runAvg speedWind from/ knotsBaromVisibWave heightAir tempDewpointWater temp
2015-Jul-06 08:33N 43°14' E 010°07'1716.9
2015-Jul-06 07:33N 43°30' E 010°12'5 5.1
2015-Jul-06 06:34N 43°33' E 010°18'0 0.0
2015-Jul-06 05:33N 43°33' E 010°18'0 0.4
2015-Jul-06 04:33N 43°33' E 010°18'1313.4
2015-Jul-06 03:33N 43°20' E 010°13'1514.8
2015-Jul-06 02:33N 43°06' E 010°06'1716.5
2015-Jul-06 01:33N 42°50' E 009°60'1717.1
2015-Jul-06 00:32N 42°33' E 009°57'2117.0
2015-Jul-05 23:19N 42°12' E 009°53'4916.7
2015-Jul-05 20:25N 41°24' E 009°46'32 1.7
2015-Jul-05 01:24N 41°56' E 009°52'1616.7
2015-Jul-05 00:27N 42°11' E 009°55'4816.6
2015-Jul-04 21:34N 42°59' E 010°03'1717.0
2015-Jul-04 20:34N 43°16' E 010°07'1716.1
2015-Jul-04 19:31N 43°32' E 010°15'3 2.9
2015-Jul-04 18:32N 43°33' E 010°18'0 0.0
2015-Jul-04 17:33N 43°33' E 010°18'0 0.0
2015-Jul-04 16:33N 43°33' E 010°18'0 0.0
2015-Jul-04 15:33N 43°33' E 010°18'1212.3
2015-Jul-04 14:34N 43°24' E 010°06'1716.6
2015-Jul-04 13:33N 43°13' E 009°50'1616.4
2015-Jul-04 12:33N 42°59' E 009°38'1716.3
2015-Jul-04 11:32N 42°43' E 009°30'5 2.6
2015-Jul-04 09:33N 42°47' E 009°35'1817.5
2015-Jul-04 08:32N 42°57' E 009°55'1717.1
2015-Jul-04 07:33N 43°13' E 010°04'1717.1
2015-Jul-04 06:33N 43°29' E 010°12'6 6.4
2015-Jul-04 05:33N 43°33' E 010°18'0 0.0
2015-Jul-04 04:33N 43°33' E 010°18'8 7.7
2015-Jul-04 03:34N 43°27' E 010°12'1817.7
2015-Jul-04 02:34N 43°10' E 010°07'1717.2
2015-Jul-04 01:34N 42°53' E 010°01'1717.3
2015-Jul-04 00:33N 42°36' E 009°57'1717.4
2015-Jul-03 23:33N 42°19' E 009°54'6817.0
2015-Jul-03 19:33N 41°11' E 009°44'40 2.2
2015-Jul-03 01:31N 41°51' E 009°50'2016.8
2015-Jul-03 00:19N 42°11' E 009°52'1316.7
2015-Jul-02 23:33N 42°24' E 009°55'5016.6
2015-Jul-02 20:33N 43°13' E 010°07'1716.7
2015-Jul-02 19:34N 43°29' E 010°12'6 6.1
2015-Jul-02 18:33N 43°33' E 010°18'0 0.0
2015-Jul-02 17:33N 43°33' E 010°18'0 0.0
2015-Jul-02 16:33N 43°33' E 010°18'0 0.0
2015-Jul-02 15:33N 43°33' E 010°18'1010.0
2015-Jul-02 14:33N 43°26' E 010°08'1717.0
2015-Jul-02 13:33N 43°15' E 009°51'1816.9
2015-Jul-02 12:28N 42°59' E 009°37'1617.1
2015-Jul-02 11:33N 42°44' E 009°31'3 1.6
2015-Jul-02 09:33N 42°46' E 009°35'1716.9
2015-Jul-02 08:33N 42°56' E 009°53'1716.5
2015-Jul-02 07:33N 43°11' E 010°02'1717.1
2015-Jul-02 06:33N 43°27' E 010°10'8 7.9
2015-Jul-02 05:34N 43°33' E 010°18'0 0.0
2015-Jul-02 04:33N 43°33' E 010°18'8 8.1
2015-Jul-02 03:34N 43°26' E 010°12'1717.0
2015-Jul-02 02:34N 43°10' E 010°08'2116.6
2015-Jul-02 01:16N 42°49' E 009°60'1216.7
2015-Jul-02 00:34N 42°37' E 009°57'1716.9
2015-Jul-01 23:33N 42°20' E 009°55'7216.9
2015-Jul-01 19:15N 41°08' E 009°43'45 2.5
2015-Jul-01 01:31N 41°53' E 009°49'7316.3
2015-Jun-30 21:03N 43°05' E 010°04'816.9
2015-Jun-30 20:33N 43°13' E 010°06'1716.8
2015-Jun-30 19:33N 43°29' E 010°12'6 5.6
2015-Jun-30 18:33N 43°33' E 010°18'0 0.0
2015-Jun-30 17:17N 43°33' E 010°18'0 0.0
2015-Jun-30 16:33N 43°33' E 010°18'0 0.0
2015-Jun-30 15:32N 43°33' E 010°18'1111.7
2015-Jun-30 14:33N 43°25' E 010°07'1716.7
2015-Jun-30 13:33N 43°13' E 009°50'23 5.5
2015-Jun-30 09:16N 42°51' E 009°43'1217.6
2015-Jun-30 08:33N 42°58' E 009°56'1817.6
2015-Jun-30 07:33N 43°15' E 010°04'1717.3
2015-Jun-30 06:34N 43°31' E 010°13'4 4.0
2015-Jun-30 05:33N 43°33' E 010°18'0 0.0
2015-Jun-30 04:33N 43°33' E 010°18'6 6.1
2015-Jun-30 03:34N 43°28' E 010°13'1716.8
2015-Jun-30 02:34N 43°12' E 010°07'1717.0
2015-Jun-30 01:33N 42°55' E 010°02'2317.2
2015-Jun-30 00:14N 42°33' E 009°55'1217.2
2015-Jun-29 23:33N 42°22' E 009°52'6816.9
2015-Jun-29 19:30N 41°13' E 009°44'1616.2
2015-Jun-29 18:30N 40°58' E 009°38'5810.8
2015-Jun-29 13:09N 41°55' E 009°50'1117.5
2015-Jun-29 12:29N 42°06' E 009°52'5217.5
2015-Jun-29 09:33N 42°57' E 010°02'1716.9
2015-Jun-29 08:33N 43°14' E 010°07'1717.3
2015-Jun-29 07:33N 43°30' E 010°13'5 4.6
2015-Jun-29 06:33N 43°33' E 010°18'0 0.0
2015-Jun-29 05:32N 43°33' E 010°18'0 0.1
2015-Jun-29 04:33N 43°33' E 010°18'1312.7
2015-Jun-29 03:33N 43°22' E 010°11'1716.9
2015-Jun-29 02:33N 43°05' E 010°06'1716.8
2015-Jun-29 01:33N 42°49' E 009°60'4116.6
2015-Jun-28 23:04N 42°08' E 009°51'66 2.5
2015-Jun-27 20:34N 43°13' E 010°06'1716.7
2015-Jun-27 19:34N 43°29' E 010°12'6 6.3
2015-Jun-27 18:33N 43°33' E 010°18'0 0.0
2015-Jun-27 17:34N 43°33' E 010°18'0 0.0
2015-Jun-27 16:32N 43°33' E 010°18'2 2.0
2015-Jun-27 15:33N 43°32' E 010°16'1616.1
2015-Jun-27 14:33N 43°20' E 010°01'1717.4
2015-Jun-27 13:33N 43°08' E 009°44'1817.3
2015-Jun-27 12:29N 42°51' E 009°34'5 1.5
2015-Jun-27 09:33N 42°49' E 009°39'2217.0
2015-Jun-27 08:16N 43°05' E 009°59'1217.6
2015-Jun-27 07:33N 43°16' E 010°05'1515.0
2015-Jun-27 06:33N 43°30' E 010°13'5 2.5
2015-Jun-27 04:33N 43°33' E 010°18'9 9.0
2015-Jun-27 03:34N 43°26' E 010°12'1817.3
2015-Jun-27 02:33N 43°09' E 010°06'1717.1
2015-Jun-27 01:33N 42°52' E 009°60'1717.4
2015-Jun-27 00:33N 42°35' E 009°55'  

Dump ship's entire track history